sensor_id;sensor_type;location;lat;lon;timestamp;temperature;humidity
39665;DHT22;26679;50.872;4.332;2023-04-29T00:01:06;13.20;99.90
39665;DHT22;26679;50.872;4.332;2023-04-29T00:03:32;13.20;99.90
39665;DHT22;26679;50.872;4.332;2023-04-29T00:05:57;13.30;99.90
39665;DHT22;26679;50.872;4.332;2023-04-29T00:08:23;13.50;99.90
39665;DHT22;26679;50.872;4.332;2023-04-29T00:10:49;13.30;99.90
39665;DHT22;26679;50.872;4.332;2023-04-29T00:13:15;13.30;99.90
39665;DHT22;26679;50.872;4.332;2023-04-29T00:15:40;13.10;99.90
39665;DHT22;26679;50.872;4.332;2023-04-29T00:18:06;13.10;99.90
39665;DHT22;26679;50.872;4.332;2023-04-29T00:20:33;13.10;99.90
39665;DHT22;26679;50.872;4.332;2023-04-29T00:22:59;13.10;99.90
39665;DHT22;26679;50.872;4.332;2023-04-29T00:25:24;13.10;99.90
39665;DHT22;26679;50.872;4.332;2023-04-29T00:27:50;13.10;99.90
39665;DHT22;26679;50.872;4.332;2023-04-29T00:30:15;13.00;99.90
39665;DHT22;26679;50.872;4.332;2023-04-29T00:32:41;13.00;99.90
39665;DHT22;26679;50.872;4.332;2023-04-29T00:35:08;13.00;99.90
39665;DHT22;26679;50.872;4.332;2023-04-29T00:37:33;13.00;99.90
39665;DHT22;26679;50.872;4.332;2023-04-29T00:39:59;12.90;99.90
39665;DHT22;26679;50.872;4.332;2023-04-29T00:42:24;12.80;99.90
39665;DHT22;26679;50.872;4.332;2023-04-29T00:44:50;12.80;99.90
39665;DHT22;26679;50.872;4.332;2023-04-29T00:47:16;12.80;99.90
39665;DHT22;26679;50.872;4.332;2023-04-29T00:49:41;12.80;99.90
39665;DHT22;26679;50.872;4.332;2023-04-29T00:52:07;12.80;99.90
39665;DHT22;26679;50.872;4.332;2023-04-29T00:54:35;12.70;99.90
39665;DHT22;26679;50.872;4.332;2023-04-29T00:57:01;12.70;99.90
39665;DHT22;26679;50.872;4.332;2023-04-29T00:59:28;12.60;99.90
39665;DHT22;26679;50.872;4.332;2023-04-29T01:01:58;12.60;99.90
39665;DHT22;26679;50.872;4.332;2023-04-29T01:04:24;12.70;99.90
39665;DHT22;26679;50.872;4.332;2023-04-29T01:14:41;12.70;99.90
39665;DHT22;26679;50.872;4.332;2023-04-29T01:17:13;12.70;99.90
39665;DHT22;26679;50.872;4.332;2023-04-29T01:22:16;12.50;99.90
39665;DHT22;26679;50.872;4.332;2023-04-29T01:24:43;12.40;99.90
39665;DHT22;26679;50.872;4.332;2023-04-29T01:29:50;12.60;99.90
39665;DHT22;26679;50.872;4.332;2023-04-29T01:32:17;12.70;99.90
39665;DHT22;26679;50.872;4.332;2023-04-29T01:34:55;12.70;99.90
39665;DHT22;26679;50.872;4.332;2023-04-29T01:42:33;12.50;99.90
39665;DHT22;26679;50.872;4.332;2023-04-29T01:45:01;12.50;99.90
39665;DHT22;26679;50.872;4.332;2023-04-29T01:47:27;12.50;99.90
39665;DHT22;26679;50.872;4.332;2023-04-29T01:49:53;12.50;99.90
39665;DHT22;26679;50.872;4.332;2023-04-29T01:52:19;12.50;99.90
39665;DHT22;26679;50.872;4.332;2023-04-29T01:54:44;12.50;99.90
39665;DHT22;26679;50.872;4.332;2023-04-29T01:57:10;12.50;99.90
39665;DHT22;26679;50.872;4.332;2023-04-29T01:59:35;12.50;99.90
39665;DHT22;26679;50.872;4.332;2023-04-29T02:02:01;12.30;99.90
39665;DHT22;26679;50.872;4.332;2023-04-29T02:04:27;12.30;99.90
39665;DHT22;26679;50.872;4.332;2023-04-29T02:06:52;12.30;99.90
39665;DHT22;26679;50.872;4.332;2023-04-29T02:09:18;12.30;99.90
39665;DHT22;26679;50.872;4.332;2023-04-29T02:11:44;12.30;99.90
39665;DHT22;26679;50.872;4.332;2023-04-29T02:14:09;12.30;99.90
39665;DHT22;26679;50.872;4.332;2023-04-29T02:16:36;12.30;99.90
39665;DHT22;26679;50.872;4.332;2023-04-29T02:19:02;12.30;99.90
39665;DHT22;26679;50.872;4.332;2023-04-29T02:21:27;12.40;99.90
39665;DHT22;26679;50.872;4.332;2023-04-29T02:23:53;12.30;99.90
39665;DHT22;26679;50.872;4.332;2023-04-29T02:26:19;12.40;99.90
39665;DHT22;26679;50.872;4.332;2023-04-29T02:28:44;12.40;99.90
39665;DHT22;26679;50.872;4.332;2023-04-29T02:31:10;12.30;99.90
39665;DHT22;26679;50.872;4.332;2023-04-29T02:33:36;12.30;99.90
39665;DHT22;26679;50.872;4.332;2023-04-29T02:36:02;12.30;99.90
39665;DHT22;26679;50.872;4.332;2023-04-29T02:38:27;12.30;99.90
39665;DHT22;26679;50.872;4.332;2023-04-29T02:40:53;12.20;99.90
39665;DHT22;26679;50.872;4.332;2023-04-29T02:43:18;12.20;99.90
39665;DHT22;26679;50.872;4.332;2023-04-29T02:45:44;12.20;99.90
39665;DHT22;26679;50.872;4.332;2023-04-29T02:48:09;12.30;99.90
39665;DHT22;26679;50.872;4.332;2023-04-29T02:50:35;12.20;99.90
39665;DHT22;26679;50.872;4.332;2023-04-29T02:53:00;12.20;99.90
39665;DHT22;26679;50.872;4.332;2023-04-29T02:55:26;12.10;99.90
39665;DHT22;26679;50.872;4.332;2023-04-29T02:57:52;12.10;99.90
39665;DHT22;26679;50.872;4.332;2023-04-29T03:00:17;12.20;99.90
39665;DHT22;26679;50.872;4.332;2023-04-29T03:02:43;12.20;99.90
39665;DHT22;26679;50.872;4.332;2023-04-29T03:05:08;12.20;99.90
39665;DHT22;26679;50.872;4.332;2023-04-29T03:07:34;12.20;99.90
39665;DHT22;26679;50.872;4.332;2023-04-29T03:10:00;12.20;99.90
39665;DHT22;26679;50.872;4.332;2023-04-29T03:12:25;12.20;99.90
39665;DHT22;26679;50.872;4.332;2023-04-29T03:14:51;12.10;99.90
39665;DHT22;26679;50.872;4.332;2023-04-29T03:17:17;12.10;99.90
39665;DHT22;26679;50.872;4.332;2023-04-29T03:19:43;12.20;99.90
39665;DHT22;26679;50.872;4.332;2023-04-29T03:22:08;12.10;99.90
39665;DHT22;26679;50.872;4.332;2023-04-29T03:24:36;11.90;99.90
39665;DHT22;26679;50.872;4.332;2023-04-29T03:27:01;12.00;99.90
39665;DHT22;26679;50.872;4.332;2023-04-29T03:29:27;12.20;99.90
39665;DHT22;26679;50.872;4.332;2023-04-29T03:31:52;12.20;99.90
39665;DHT22;26679;50.872;4.332;2023-04-29T03:34:18;12.20;99.90
39665;DHT22;26679;50.872;4.332;2023-04-29T03:36:44;12.20;99.90
39665;DHT22;26679;50.872;4.332;2023-04-29T03:39:09;12.20;99.90
39665;DHT22;26679;50.872;4.332;2023-04-29T03:41:36;12.10;99.90
39665;DHT22;26679;50.872;4.332;2023-04-29T03:44:02;12.00;99.90
39665;DHT22;26679;50.872;4.332;2023-04-29T03:46:27;12.00;99.90
39665;DHT22;26679;50.872;4.332;2023-04-29T03:48:53;12.00;99.90
39665;DHT22;26679;50.872;4.332;2023-04-29T03:51:22;12.00;99.90
39665;DHT22;26679;50.872;4.332;2023-04-29T03:53:48;12.10;99.90
39665;DHT22;26679;50.872;4.332;2023-04-29T03:56:13;12.10;99.90
39665;DHT22;26679;50.872;4.332;2023-04-29T03:58:39;12.10;99.90
39665;DHT22;26679;50.872;4.332;2023-04-29T04:01:04;12.20;99.90
39665;DHT22;26679;50.872;4.332;2023-04-29T04:03:30;12.10;99.90
39665;DHT22;26679;50.872;4.332;2023-04-29T04:05:56;12.10;99.90
39665;DHT22;26679;50.872;4.332;2023-04-29T04:08:22;12.10;99.90
39665;DHT22;26679;50.872;4.332;2023-04-29T04:10:47;12.10;99.90
39665;DHT22;26679;50.872;4.332;2023-04-29T04:13:13;12.10;99.90
39665;DHT22;26679;50.872;4.332;2023-04-29T04:15:39;12.10;99.90
39665;DHT22;26679;50.872;4.332;2023-04-29T04:18:04;12.00;99.90
39665;DHT22;26679;50.872;4.332;2023-04-29T04:20:30;12.10;99.90
39665;DHT22;26679;50.872;4.332;2023-04-29T04:22:56;12.10;99.90
39665;DHT22;26679;50.872;4.332;2023-04-29T04:25:21;12.20;99.90
39665;DHT22;26679;50.872;4.332;2023-04-29T04:27:47;12.10;99.90
39665;DHT22;26679;50.872;4.332;2023-04-29T04:30:12;12.00;99.90
39665;DHT22;26679;50.872;4.332;2023-04-29T04:32:38;12.10;99.90
39665;DHT22;26679;50.872;4.332;2023-04-29T04:35:05;12.10;99.90
39665;DHT22;26679;50.872;4.332;2023-04-29T04:37:31;12.10;99.90
39665;DHT22;26679;50.872;4.332;2023-04-29T04:39:56;12.00;99.90
39665;DHT22;26679;50.872;4.332;2023-04-29T04:42:22;12.00;99.90
39665;DHT22;26679;50.872;4.332;2023-04-29T04:44:47;12.00;99.90
39665;DHT22;26679;50.872;4.332;2023-04-29T04:47:13;11.90;99.90
39665;DHT22;26679;50.872;4.332;2023-04-29T04:49:41;11.90;99.90
39665;DHT22;26679;50.872;4.332;2023-04-29T04:52:08;11.90;99.90
39665;DHT22;26679;50.872;4.332;2023-04-29T04:54:37;11.90;99.90
39665;DHT22;26679;50.872;4.332;2023-04-29T04:57:02;11.80;99.90
39665;DHT22;26679;50.872;4.332;2023-04-29T04:59:30;11.80;99.90
39665;DHT22;26679;50.872;4.332;2023-04-29T05:01:56;11.80;99.90
39665;DHT22;26679;50.872;4.332;2023-04-29T05:04:22;11.90;99.90
39665;DHT22;26679;50.872;4.332;2023-04-29T05:06:47;12.00;99.90
39665;DHT22;26679;50.872;4.332;2023-04-29T05:09:13;12.00;99.90
39665;DHT22;26679;50.872;4.332;2023-04-29T05:11:38;11.70;99.90
39665;DHT22;26679;50.872;4.332;2023-04-29T05:14:04;11.70;99.90
39665;DHT22;26679;50.872;4.332;2023-04-29T05:16:29;11.80;99.90
39665;DHT22;26679;50.872;4.332;2023-04-29T05:18:55;11.80;99.90
39665;DHT22;26679;50.872;4.332;2023-04-29T05:21:20;11.80;99.90
39665;DHT22;26679;50.872;4.332;2023-04-29T05:23:46;11.90;99.90
39665;DHT22;26679;50.872;4.332;2023-04-29T05:26:11;12.00;99.90
39665;DHT22;26679;50.872;4.332;2023-04-29T05:28:37;12.00;99.90
39665;DHT22;26679;50.872;4.332;2023-04-29T05:31:02;11.90;99.90
39665;DHT22;26679;50.872;4.332;2023-04-29T05:33:28;11.90;99.90
39665;DHT22;26679;50.872;4.332;2023-04-29T05:35:53;11.80;99.90
39665;DHT22;26679;50.872;4.332;2023-04-29T05:38:19;11.80;99.90
39665;DHT22;26679;50.872;4.332;2023-04-29T05:40:44;11.90;99.90
39665;DHT22;26679;50.872;4.332;2023-04-29T05:43:10;11.80;99.90
39665;DHT22;26679;50.872;4.332;2023-04-29T05:45:36;11.80;99.90
39665;DHT22;26679;50.872;4.332;2023-04-29T05:48:01;11.80;99.90
39665;DHT22;26679;50.872;4.332;2023-04-29T05:50:26;11.90;99.90
39665;DHT22;26679;50.872;4.332;2023-04-29T05:52:52;11.90;99.90
39665;DHT22;26679;50.872;4.332;2023-04-29T05:55:18;11.80;99.90
39665;DHT22;26679;50.872;4.332;2023-04-29T05:57:44;11.80;99.90
39665;DHT22;26679;50.872;4.332;2023-04-29T06:00:10;11.90;99.90
39665;DHT22;26679;50.872;4.332;2023-04-29T06:02:35;11.80;99.90
39665;DHT22;26679;50.872;4.332;2023-04-29T06:05:04;11.80;99.90
39665;DHT22;26679;50.872;4.332;2023-04-29T06:07:29;11.90;99.90
39665;DHT22;26679;50.872;4.332;2023-04-29T06:09:55;11.80;99.90
39665;DHT22;26679;50.872;4.332;2023-04-29T06:12:21;11.60;99.90
39665;DHT22;26679;50.872;4.332;2023-04-29T06:14:46;11.50;99.90
39665;DHT22;26679;50.872;4.332;2023-04-29T06:17:12;11.60;99.90
39665;DHT22;26679;50.872;4.332;2023-04-29T06:19:37;11.70;99.90
39665;DHT22;26679;50.872;4.332;2023-04-29T06:22:03;11.80;99.90
39665;DHT22;26679;50.872;4.332;2023-04-29T06:24:28;11.90;99.90
39665;DHT22;26679;50.872;4.332;2023-04-29T06:26:54;11.90;99.90
39665;DHT22;26679;50.872;4.332;2023-04-29T06:29:19;11.80;99.90
39665;DHT22;26679;50.872;4.332;2023-04-29T06:31:45;11.80;99.90
39665;DHT22;26679;50.872;4.332;2023-04-29T06:34:10;11.80;99.90
39665;DHT22;26679;50.872;4.332;2023-04-29T06:36:37;11.80;99.90
39665;DHT22;26679;50.872;4.332;2023-04-29T06:39:02;11.70;99.90
39665;DHT22;26679;50.872;4.332;2023-04-29T06:41:28;11.60;99.90
39665;DHT22;26679;50.872;4.332;2023-04-29T06:43:53;11.70;99.90
39665;DHT22;26679;50.872;4.332;2023-04-29T06:46:19;11.80;99.90
39665;DHT22;26679;50.872;4.332;2023-04-29T06:48:45;11.70;99.90
39665;DHT22;26679;50.872;4.332;2023-04-29T06:51:10;11.70;99.90
39665;DHT22;26679;50.872;4.332;2023-04-29T06:53:36;11.70;99.90
39665;DHT22;26679;50.872;4.332;2023-04-29T06:56:01;11.80;99.90
39665;DHT22;26679;50.872;4.332;2023-04-29T06:58:27;11.80;99.90
39665;DHT22;26679;50.872;4.332;2023-04-29T07:00:52;11.80;99.90
39665;DHT22;26679;50.872;4.332;2023-04-29T07:03:18;11.90;99.90
39665;DHT22;26679;50.872;4.332;2023-04-29T07:05:44;11.90;99.90
39665;DHT22;26679;50.872;4.332;2023-04-29T07:08:10;12.00;99.90
39665;DHT22;26679;50.872;4.332;2023-04-29T07:10:36;12.10;99.90
39665;DHT22;26679;50.872;4.332;2023-04-29T07:13:02;12.10;99.90
39665;DHT22;26679;50.872;4.332;2023-04-29T07:15:28;12.10;99.90
39665;DHT22;26679;50.872;4.332;2023-04-29T07:17:54;12.10;99.90
39665;DHT22;26679;50.872;4.332;2023-04-29T07:20:20;12.10;99.90
39665;DHT22;26679;50.872;4.332;2023-04-29T07:22:46;12.20;99.90
39665;DHT22;26679;50.872;4.332;2023-04-29T07:25:11;12.20;99.90
39665;DHT22;26679;50.872;4.332;2023-04-29T07:27:37;12.30;99.90
39665;DHT22;26679;50.872;4.332;2023-04-29T07:30:03;12.20;99.90
39665;DHT22;26679;50.872;4.332;2023-04-29T07:32:34;12.20;99.90
39665;DHT22;26679;50.872;4.332;2023-04-29T07:35:03;12.20;99.90
39665;DHT22;26679;50.872;4.332;2023-04-29T07:37:29;12.20;99.90
39665;DHT22;26679;50.872;4.332;2023-04-29T07:39:54;12.30;99.90
39665;DHT22;26679;50.872;4.332;2023-04-29T07:42:20;12.30;99.90
39665;DHT22;26679;50.872;4.332;2023-04-29T07:44:45;12.30;99.90
39665;DHT22;26679;50.872;4.332;2023-04-29T07:47:11;12.30;99.90
39665;DHT22;26679;50.872;4.332;2023-04-29T07:49:37;12.40;99.90
39665;DHT22;26679;50.872;4.332;2023-04-29T07:52:09;12.50;99.90
39665;DHT22;26679;50.872;4.332;2023-04-29T07:54:35;12.60;99.90
39665;DHT22;26679;50.872;4.332;2023-04-29T07:57:01;12.70;99.90
39665;DHT22;26679;50.872;4.332;2023-04-29T07:59:28;12.70;99.90
39665;DHT22;26679;50.872;4.332;2023-04-29T08:01:53;12.60;99.90
39665;DHT22;26679;50.872;4.332;2023-04-29T08:04:19;12.70;99.90
39665;DHT22;26679;50.872;4.332;2023-04-29T08:06:45;12.70;99.90
39665;DHT22;26679;50.872;4.332;2023-04-29T08:09:11;12.80;99.90
39665;DHT22;26679;50.872;4.332;2023-04-29T08:11:36;12.90;99.90
39665;DHT22;26679;50.872;4.332;2023-04-29T08:14:04;13.00;99.90
39665;DHT22;26679;50.872;4.332;2023-04-29T08:16:29;13.00;99.90
39665;DHT22;26679;50.872;4.332;2023-04-29T08:18:55;13.10;99.90
39665;DHT22;26679;50.872;4.332;2023-04-29T08:21:21;13.10;99.90
39665;DHT22;26679;50.872;4.332;2023-04-29T08:23:47;13.10;99.90
39665;DHT22;26679;50.872;4.332;2023-04-29T08:26:13;13.20;99.90
39665;DHT22;26679;50.872;4.332;2023-04-29T08:28:38;13.40;99.90
39665;DHT22;26679;50.872;4.332;2023-04-29T08:31:07;13.50;99.90
39665;DHT22;26679;50.872;4.332;2023-04-29T08:33:35;13.50;99.90
39665;DHT22;26679;50.872;4.332;2023-04-29T08:36:01;13.40;99.90
39665;DHT22;26679;50.872;4.332;2023-04-29T08:38:30;13.60;99.90
39665;DHT22;26679;50.872;4.332;2023-04-29T08:40:56;13.70;99.90
39665;DHT22;26679;50.872;4.332;2023-04-29T08:43:22;13.90;99.90
39665;DHT22;26679;50.872;4.332;2023-04-29T08:45:48;14.10;99.90
39665;DHT22;26679;50.872;4.332;2023-04-29T08:48:14;14.20;99.90
39665;DHT22;26679;50.872;4.332;2023-04-29T08:50:40;14.20;99.90
39665;DHT22;26679;50.872;4.332;2023-04-29T08:53:10;14.20;99.90
39665;DHT22;26679;50.872;4.332;2023-04-29T08:55:43;14.30;99.90
39665;DHT22;26679;50.872;4.332;2023-04-29T08:58:09;14.30;99.90
39665;DHT22;26679;50.872;4.332;2023-04-29T09:00:35;14.30;99.90
39665;DHT22;26679;50.872;4.332;2023-04-29T09:05:38;14.50;99.90
39665;DHT22;26679;50.872;4.332;2023-04-29T09:08:06;14.50;99.90
39665;DHT22;26679;50.872;4.332;2023-04-29T09:10:32;14.20;99.90
39665;DHT22;26679;50.872;4.332;2023-04-29T09:13:00;14.20;99.90
39665;DHT22;26679;50.872;4.332;2023-04-29T09:15:25;14.20;99.90
39665;DHT22;26679;50.872;4.332;2023-04-29T09:17:51;14.20;99.90
39665;DHT22;26679;50.872;4.332;2023-04-29T09:22:50;14.10;99.90
39665;DHT22;26679;50.872;4.332;2023-04-29T09:25:16;14.10;99.90
39665;DHT22;26679;50.872;4.332;2023-04-29T09:27:42;14.00;99.90
39665;DHT22;26679;50.872;4.332;2023-04-29T09:30:07;14.00;99.90
39665;DHT22;26679;50.872;4.332;2023-04-29T09:32:33;14.00;99.90
39665;DHT22;26679;50.872;4.332;2023-04-29T09:37:35;13.60;99.90
39665;DHT22;26679;50.872;4.332;2023-04-29T09:40:01;13.60;99.90
39665;DHT22;26679;50.872;4.332;2023-04-29T09:42:26;13.80;99.90
39665;DHT22;26679;50.872;4.332;2023-04-29T09:44:52;14.00;99.90
39665;DHT22;26679;50.872;4.332;2023-04-29T09:47:18;14.10;99.90
39665;DHT22;26679;50.872;4.332;2023-04-29T09:49:53;14.40;99.90
39665;DHT22;26679;50.872;4.332;2023-04-29T09:52:40;14.50;99.90
39665;DHT22;26679;50.872;4.332;2023-04-29T09:55:09;14.70;99.90
39665;DHT22;26679;50.872;4.332;2023-04-29T09:57:39;15.00;99.90
39665;DHT22;26679;50.872;4.332;2023-04-29T10:00:06;15.00;99.90
39665;DHT22;26679;50.872;4.332;2023-04-29T10:02:31;15.00;99.90
39665;DHT22;26679;50.872;4.332;2023-04-29T10:04:57;14.80;99.90
39665;DHT22;26679;50.872;4.332;2023-04-29T10:07:23;15.00;99.90
39665;DHT22;26679;50.872;4.332;2023-04-29T10:09:50;15.20;99.90
39665;DHT22;26679;50.872;4.332;2023-04-29T10:12:16;15.40;99.90
39665;DHT22;26679;50.872;4.332;2023-04-29T10:14:46;15.50;99.90
39665;DHT22;26679;50.872;4.332;2023-04-29T10:17:17;15.90;99.90
39665;DHT22;26679;50.872;4.332;2023-04-29T10:19:46;16.40;99.90
39665;DHT22;26679;50.872;4.332;2023-04-29T10:37:02;17.90;99.90
39665;DHT22;26679;50.872;4.332;2023-04-29T10:39:35;18.00;99.90
39665;DHT22;26679;50.872;4.332;2023-04-29T10:42:04;17.80;99.90
39665;DHT22;26679;50.872;4.332;2023-04-29T10:47:18;17.40;99.90
39665;DHT22;26679;50.872;4.332;2023-04-29T10:50:00;17.30;99.90
39665;DHT22;26679;50.872;4.332;2023-04-29T10:52:26;17.10;99.90
39665;DHT22;26679;50.872;4.332;2023-04-29T10:57:28;15.60;99.90
39665;DHT22;26679;50.872;4.332;2023-04-29T10:59:54;15.60;99.90
39665;DHT22;26679;50.872;4.332;2023-04-29T11:02:20;15.20;99.90
39665;DHT22;26679;50.872;4.332;2023-04-29T11:07:26;15.40;99.90
39665;DHT22;26679;50.872;4.332;2023-04-29T11:09:52;15.80;99.90
39665;DHT22;26679;50.872;4.332;2023-04-29T11:12:19;16.00;99.90
39665;DHT22;26679;50.872;4.332;2023-04-29T11:14:49;16.20;99.90
39665;DHT22;26679;50.872;4.332;2023-04-29T11:17:16;16.30;99.90
39665;DHT22;26679;50.872;4.332;2023-04-29T11:19:42;16.50;99.90
39665;DHT22;26679;50.872;4.332;2023-04-29T11:22:32;16.10;99.90
39665;DHT22;26679;50.872;4.332;2023-04-29T11:25:04;15.50;99.90
39665;DHT22;26679;50.872;4.332;2023-04-29T11:27:34;15.00;99.90
39665;DHT22;26679;50.872;4.332;2023-04-29T11:30:01;15.10;99.90
39665;DHT22;26679;50.872;4.332;2023-04-29T11:32:36;15.30;99.90
39665;DHT22;26679;50.872;4.332;2023-04-29T11:35:21;14.90;99.90
39665;DHT22;26679;50.872;4.332;2023-04-29T11:37:46;14.90;99.90
39665;DHT22;26679;50.872;4.332;2023-04-29T11:40:13;14.90;99.90
39665;DHT22;26679;50.872;4.332;2023-04-29T11:42:40;14.90;99.90
39665;DHT22;26679;50.872;4.332;2023-04-29T11:45:07;15.40;99.90
39665;DHT22;26679;50.872;4.332;2023-04-29T11:47:32;15.70;99.90
39665;DHT22;26679;50.872;4.332;2023-04-29T11:50:01;15.60;99.90
39665;DHT22;26679;50.872;4.332;2023-04-29T11:52:27;15.80;99.90
39665;DHT22;26679;50.872;4.332;2023-04-29T11:54:53;16.30;99.90
39665;DHT22;26679;50.872;4.332;2023-04-29T11:57:18;16.80;99.90
39665;DHT22;26679;50.872;4.332;2023-04-29T11:59:45;17.20;99.90
39665;DHT22;26679;50.872;4.332;2023-04-29T12:02:11;17.40;99.90
39665;DHT22;26679;50.872;4.332;2023-04-29T12:07:15;17.50;99.90
39665;DHT22;26679;50.872;4.332;2023-04-29T12:09:43;17.40;99.90
39665;DHT22;26679;50.872;4.332;2023-04-29T12:12:11;17.30;99.90
39665;DHT22;26679;50.872;4.332;2023-04-29T12:14:37;17.10;99.90
39665;DHT22;26679;50.872;4.332;2023-04-29T12:17:07;17.00;99.90
39665;DHT22;26679;50.872;4.332;2023-04-29T12:19:34;16.90;99.90
39665;DHT22;26679;50.872;4.332;2023-04-29T12:22:02;16.70;99.90
39665;DHT22;26679;50.872;4.332;2023-04-29T12:24:27;16.50;99.90
39665;DHT22;26679;50.872;4.332;2023-04-29T12:26:59;16.50;99.90
39665;DHT22;26679;50.872;4.332;2023-04-29T12:29:24;16.60;99.90
39665;DHT22;26679;50.872;4.332;2023-04-29T12:31:50;16.60;99.90
39665;DHT22;26679;50.872;4.332;2023-04-29T12:34:16;16.70;99.90
39665;DHT22;26679;50.872;4.332;2023-04-29T12:36:49;16.50;99.90
39665;DHT22;26679;50.872;4.332;2023-04-29T12:39:15;17.00;99.90
39665;DHT22;26679;50.872;4.332;2023-04-29T12:41:41;17.40;99.90
39665;DHT22;26679;50.872;4.332;2023-04-29T12:44:07;17.80;99.90
39665;DHT22;26679;50.872;4.332;2023-04-29T12:46:35;18.10;99.80
39665;DHT22;26679;50.872;4.332;2023-04-29T12:49:02;18.20;99.60
39665;DHT22;26679;50.872;4.332;2023-04-29T12:51:31;18.40;99.30
39665;DHT22;26679;50.872;4.332;2023-04-29T12:54:05;18.70;99.60
39665;DHT22;26679;50.872;4.332;2023-04-29T12:56:32;18.90;98.70
39665;DHT22;26679;50.872;4.332;2023-04-29T12:59:07;18.80;98.70
39665;DHT22;26679;50.872;4.332;2023-04-29T13:01:32;18.70;98.10
39665;DHT22;26679;50.872;4.332;2023-04-29T13:03:58;18.10;98.30
39665;DHT22;26679;50.872;4.332;2023-04-29T13:06:24;18.00;98.70
39665;DHT22;26679;50.872;4.332;2023-04-29T13:08:50;17.90;98.50
39665;DHT22;26679;50.872;4.332;2023-04-29T13:11:21;17.90;98.60
39665;DHT22;26679;50.872;4.332;2023-04-29T13:13:47;17.90;98.60
39665;DHT22;26679;50.872;4.332;2023-04-29T13:16:12;17.80;99.00
39665;DHT22;26679;50.872;4.332;2023-04-29T13:18:41;17.50;99.20
39665;DHT22;26679;50.872;4.332;2023-04-29T13:21:07;17.70;99.10
39665;DHT22;26679;50.872;4.332;2023-04-29T13:23:38;17.60;99.10
39665;DHT22;26679;50.872;4.332;2023-04-29T13:28:39;17.60;99.20
39665;DHT22;26679;50.872;4.332;2023-04-29T13:31:06;17.70;99.10
39665;DHT22;26679;50.872;4.332;2023-04-29T13:33:36;17.60;99.00
39665;DHT22;26679;50.872;4.332;2023-04-29T13:36:02;17.70;98.90
39665;DHT22;26679;50.872;4.332;2023-04-29T13:38:27;17.70;99.30
39665;DHT22;26679;50.872;4.332;2023-04-29T13:40:53;17.70;98.90
39665;DHT22;26679;50.872;4.332;2023-04-29T13:43:21;17.70;98.60
39665;DHT22;26679;50.872;4.332;2023-04-29T13:45:53;17.50;98.60
39665;DHT22;26679;50.872;4.332;2023-04-29T13:48:22;17.50;98.90
39665;DHT22;26679;50.872;4.332;2023-04-29T13:50:48;17.40;99.20
39665;DHT22;26679;50.872;4.332;2023-04-29T13:53:13;17.40;99.20
39665;DHT22;26679;50.872;4.332;2023-04-29T13:55:41;17.30;99.40
39665;DHT22;26679;50.872;4.332;2023-04-29T13:58:10;17.20;99.60
39665;DHT22;26679;50.872;4.332;2023-04-29T14:00:36;17.10;99.80
39665;DHT22;26679;50.872;4.332;2023-04-29T14:03:03;17.10;99.90
39665;DHT22;26679;50.872;4.332;2023-04-29T14:05:31;16.80;99.90
39665;DHT22;26679;50.872;4.332;2023-04-29T14:07:57;16.90;99.90
39665;DHT22;26679;50.872;4.332;2023-04-29T14:10:22;17.30;99.90
39665;DHT22;26679;50.872;4.332;2023-04-29T14:12:48;17.60;99.70
39665;DHT22;26679;50.872;4.332;2023-04-29T14:15:14;17.90;99.30
39665;DHT22;26679;50.872;4.332;2023-04-29T14:17:39;18.00;98.80
39665;DHT22;26679;50.872;4.332;2023-04-29T14:20:05;18.40;98.80
39665;DHT22;26679;50.872;4.332;2023-04-29T14:22:31;18.60;98.70
39665;DHT22;26679;50.872;4.332;2023-04-29T14:24:56;18.80;98.10
39665;DHT22;26679;50.872;4.332;2023-04-29T14:27:22;18.80;97.90
39665;DHT22;26679;50.872;4.332;2023-04-29T14:29:47;18.90;97.90
39665;DHT22;26679;50.872;4.332;2023-04-29T14:32:13;19.20;97.80
39665;DHT22;26679;50.872;4.332;2023-04-29T14:34:38;19.50;97.60
39665;DHT22;26679;50.872;4.332;2023-04-29T14:37:04;19.70;97.00
39665;DHT22;26679;50.872;4.332;2023-04-29T14:39:29;20.00;97.00
39665;DHT22;26679;50.872;4.332;2023-04-29T14:41:55;20.10;96.70
39665;DHT22;26679;50.872;4.332;2023-04-29T14:44:21;20.10;96.40
39665;DHT22;26679;50.872;4.332;2023-04-29T14:46:46;20.10;96.10
39665;DHT22;26679;50.872;4.332;2023-04-29T14:49:12;20.00;96.10
39665;DHT22;26679;50.872;4.332;2023-04-29T14:51:37;19.80;96.20
39665;DHT22;26679;50.872;4.332;2023-04-29T14:54:03;19.70;96.40
39665;DHT22;26679;50.872;4.332;2023-04-29T14:56:29;19.70;96.40
39665;DHT22;26679;50.872;4.332;2023-04-29T14:58:55;19.10;96.40
39665;DHT22;26679;50.872;4.332;2023-04-29T15:01:20;18.90;96.70
39665;DHT22;26679;50.872;4.332;2023-04-29T15:03:46;18.90;96.90
39665;DHT22;26679;50.872;4.332;2023-04-29T15:06:11;19.10;96.80
39665;DHT22;26679;50.872;4.332;2023-04-29T15:08:37;19.20;96.50
39665;DHT22;26679;50.872;4.332;2023-04-29T15:11:03;19.10;96.40
39665;DHT22;26679;50.872;4.332;2023-04-29T15:13:28;19.00;96.40
39665;DHT22;26679;50.872;4.332;2023-04-29T15:15:54;19.00;96.50
39665;DHT22;26679;50.872;4.332;2023-04-29T15:18:19;18.90;96.50
39665;DHT22;26679;50.872;4.332;2023-04-29T15:20:47;18.80;96.40
39665;DHT22;26679;50.872;4.332;2023-04-29T15:23:14;18.80;96.60
39665;DHT22;26679;50.872;4.332;2023-04-29T15:25:39;18.70;96.50
39665;DHT22;26679;50.872;4.332;2023-04-29T15:28:05;18.70;96.50
39665;DHT22;26679;50.872;4.332;2023-04-29T15:30:31;18.70;96.50
39665;DHT22;26679;50.872;4.332;2023-04-29T15:32:56;18.70;96.40
39665;DHT22;26679;50.872;4.332;2023-04-29T15:35:22;18.40;96.60
39665;DHT22;26679;50.872;4.332;2023-04-29T15:37:48;18.30;97.00
39665;DHT22;26679;50.872;4.332;2023-04-29T15:40:13;18.30;97.10
39665;DHT22;26679;50.872;4.332;2023-04-29T15:42:40;18.30;97.20
39665;DHT22;26679;50.872;4.332;2023-04-29T15:45:06;18.30;97.00
39665;DHT22;26679;50.872;4.332;2023-04-29T15:47:35;18.30;97.20
39665;DHT22;26679;50.872;4.332;2023-04-29T15:50:00;18.30;97.30
39665;DHT22;26679;50.872;4.332;2023-04-29T15:52:26;18.20;97.40
39665;DHT22;26679;50.872;4.332;2023-04-29T15:54:51;18.10;97.50
39665;DHT22;26679;50.872;4.332;2023-04-29T15:57:17;18.00;97.70
39665;DHT22;26679;50.872;4.332;2023-04-29T15:59:42;17.80;98.10
39665;DHT22;26679;50.872;4.332;2023-04-29T16:02:08;17.70;98.20
39665;DHT22;26679;50.872;4.332;2023-04-29T16:04:44;17.70;98.40
39665;DHT22;26679;50.872;4.332;2023-04-29T16:07:10;17.70;98.30
39665;DHT22;26679;50.872;4.332;2023-04-29T16:09:35;17.60;98.30
39665;DHT22;26679;50.872;4.332;2023-04-29T16:12:01;17.70;98.20
39665;DHT22;26679;50.872;4.332;2023-04-29T16:14:27;17.80;98.10
39665;DHT22;26679;50.872;4.332;2023-04-29T16:16:52;17.80;98.00
39665;DHT22;26679;50.872;4.332;2023-04-29T16:19:18;18.00;97.90